createdAt,value
2023-06-30T00:00:57.730Z,99941.44
2023-06-30T00:03:24.799Z,99940.88
2023-06-30T00:05:51.585Z,99931.16
2023-06-30T00:08:18.170Z,99932.56
2023-06-30T00:10:44.728Z,99928.94
2023-06-30T00:13:11.322Z,99928.03
2023-06-30T00:15:37.951Z,99922.88
2023-06-30T00:18:04.977Z,99909.50
2023-06-30T00:20:31.582Z,99902.72
2023-06-30T00:22:58.139Z,99904.91
2023-06-30T00:25:24.722Z,99905.69
2023-06-30T00:27:51.270Z,99899.53
2023-06-30T00:30:17.943Z,99890.59
2023-06-30T00:32:44.494Z,99888.56
2023-06-30T00:35:11.075Z,99885.75
2023-06-30T00:37:37.800Z,99886.06
2023-06-30T00:40:05.189Z,99880.00
2023-06-30T00:42:31.770Z,99884.06
2023-06-30T00:45:01.079Z,99882.25
2023-06-30T00:47:27.839Z,99877.22
2023-06-30T00:49:54.630Z,99875.03
2023-06-30T00:52:21.257Z,99873.28
2023-06-30T00:54:48.227Z,99881.84
2023-06-30T00:57:15.485Z,99878.81
2023-06-30T00:59:42.108Z,99879.41
2023-06-30T01:02:22.099Z,99881.59
2023-06-30T01:05:10.879Z,99883.41
2023-06-30T01:07:44.175Z,99877.47
2023-06-30T01:10:21.693Z,99872.94
2023-06-30T01:12:49.161Z,99879.25
2023-06-30T01:15:16.352Z,99870.16
2023-06-30T01:17:48.457Z,99877.72
2023-06-30T01:20:18.677Z,99877.97
2023-06-30T01:22:51.643Z,99873.38
2023-06-30T01:25:23.523Z,99867.38
2023-06-30T01:27:50.493Z,99866.72
2023-06-30T01:30:18.886Z,99860.19
2023-06-30T01:32:46.910Z,99865.56
2023-06-30T01:35:14.152Z,99863.94
2023-06-30T01:37:40.840Z,99862.72
2023-06-30T01:40:08.114Z,99858.25
2023-06-30T01:42:36.818Z,99854.34
2023-06-30T01:45:04.377Z,99860.63
2023-06-30T01:47:31.335Z,99863.84
2023-06-30T01:49:59.076Z,99864.53
2023-06-30T01:52:25.894Z,99865.75
2023-06-30T01:55:12.501Z,99867.19
2023-06-30T01:57:59.063Z,99868.97
2023-06-30T02:00:45.650Z,99870.53
2023-06-30T02:03:32.213Z,99870.16
2023-06-30T02:06:19.081Z,99874.09
2023-06-30T02:09:03.904Z,99868.78
2023-06-30T02:11:30.660Z,99869.69
2023-06-30T02:13:57.250Z,99867.31
2023-06-30T02:16:23.950Z,99859.13
2023-06-30T02:18:52.667Z,99865.94
2023-06-30T02:21:19.656Z,99865.66
2023-06-30T02:23:48.140Z,99869.31
2023-06-30T02:26:15.333Z,99865.94
2023-06-30T02:28:42.097Z,99865.56
2023-06-30T02:31:08.807Z,99860.75
2023-06-30T02:33:35.966Z,99860.28
2023-06-30T02:36:06.002Z,99855.09
2023-06-30T02:38:32.772Z,99849.81
2023-06-30T02:40:59.308Z,99856.06
2023-06-30T02:43:26.003Z,99858.97
2023-06-30T02:45:52.678Z,99857.03
2023-06-30T02:48:19.414Z,99856.19
2023-06-30T02:50:46.068Z,99853.97
2023-06-30T02:53:14.771Z,99853.97
2023-06-30T02:55:41.515Z,99856.75
2023-06-30T02:58:12.308Z,99854.81
2023-06-30T03:00:40.824Z,99849.78
2023-06-30T03:03:07.621Z,99849.44
2023-06-30T03:05:38.305Z,99845.38
2023-06-30T03:08:06.559Z,99844.88
2023-06-30T03:10:33.724Z,99846.94
2023-06-30T03:13:00.399Z,99850.22
2023-06-30T03:15:26.905Z,99853.56
2023-06-30T03:17:56.397Z,99865.97
2023-06-30T03:20:24.572Z,99868.91
2023-06-30T03:22:53.071Z,99865.25
2023-06-30T03:25:20.446Z,99854.97
2023-06-30T03:27:47.034Z,99858.00
2023-06-30T03:30:14.037Z,99855.22
2023-06-30T03:32:44.565Z,99851.59
2023-06-30T03:35:11.135Z,99850.88
2023-06-30T03:37:37.717Z,99854.38
2023-06-30T03:40:07.303Z,99854.25
2023-06-30T03:42:33.975Z,99858.13
2023-06-30T03:45:01.784Z,99863.41
2023-06-30T03:47:30.706Z,99867.75
2023-06-30T03:49:57.394Z,99871.34
2023-06-30T03:52:23.875Z,99874.00
2023-06-30T03:54:51.805Z,99881.34
2023-06-30T03:57:18.486Z,99887.63
2023-06-30T03:59:45.101Z,99892.19
2023-06-30T04:02:11.794Z,99895.69
2023-06-30T04:04:38.791Z,99904.25
2023-06-30T04:07:06.088Z,99906.66
2023-06-30T04:09:32.859Z,99902.94
2023-06-30T04:11:59.397Z,99918.53
2023-06-30T04:14:26.205Z,99929.84
2023-06-30T04:16:52.844Z,99927.44
2023-06-30T04:19:19.480Z,99919.94
2023-06-30T04:21:45.934Z,99922.56
2023-06-30T04:24:12.571Z,99917.25
2023-06-30T04:26:39.272Z,99907.00
2023-06-30T04:29:05.771Z,99905.47
2023-06-30T04:31:32.321Z,99891.38
2023-06-30T04:33:58.994Z,99889.00
2023-06-30T04:36:25.567Z,99901.88
2023-06-30T04:38:52.320Z,99894.63
2023-06-30T04:41:19.186Z,99885.56
2023-06-30T04:43:45.937Z,99870.97
2023-06-30T04:46:12.522Z,99874.41
2023-06-30T04:48:39.056Z,99860.84
2023-06-30T04:51:05.819Z,99868.69
2023-06-30T04:53:33.032Z,99865.22
2023-06-30T04:55:59.744Z,99867.81
2023-06-30T04:58:26.217Z,99870.47
2023-06-30T05:00:52.865Z,99870.81
2023-06-30T05:03:20.555Z,99873.06
2023-06-30T05:05:47.607Z,99873.41
2023-06-30T05:08:15.608Z,99878.16
2023-06-30T05:10:42.419Z,99878.53
2023-06-30T05:13:09.185Z,99879.38
2023-06-30T05:15:35.799Z,99877.69
2023-06-30T05:18:02.581Z,99867.03
2023-06-30T05:20:29.093Z,99870.47
2023-06-30T05:22:55.568Z,99870.44
2023-06-30T05:25:22.159Z,99865.31
2023-06-30T05:27:48.743Z,99868.41
2023-06-30T05:30:15.316Z,99863.75
2023-06-30T05:32:41.970Z,99860.72
2023-06-30T05:35:08.650Z,99869.63
2023-06-30T05:37:35.205Z,99867.00
2023-06-30T05:40:01.854Z,99873.38
2023-06-30T05:42:28.305Z,99875.38
2023-06-30T05:44:54.767Z,99878.72
2023-06-30T05:47:21.289Z,99885.88
2023-06-30T05:49:47.866Z,99895.16
2023-06-30T05:52:14.411Z,99895.88
2023-06-30T05:54:42.420Z,99900.72
2023-06-30T05:57:08.972Z,99898.84
2023-06-30T05:59:35.425Z,99909.03
2023-06-30T06:02:02.082Z,99902.47
2023-06-30T06:04:28.916Z,99908.91
2023-06-30T06:06:55.717Z,99909.63
2023-06-30T06:09:22.237Z,99908.31
2023-06-30T06:11:48.731Z,99914.34
2023-06-30T06:14:16.617Z,99913.31
2023-06-30T06:16:45.970Z,99916.47
2023-06-30T06:19:13.185Z,99932.38
2023-06-30T06:21:39.657Z,99935.22
2023-06-30T06:24:06.569Z,99937.91
2023-06-30T06:26:33.126Z,99934.13
2023-06-30T06:28:59.744Z,99945.84
2023-06-30T06:31:28.298Z,99943.91
2023-06-30T06:33:56.163Z,99941.50
2023-06-30T06:36:22.947Z,99934.81
2023-06-30T06:38:49.484Z,99935.38
2023-06-30T06:41:16.081Z,99942.81
2023-06-30T06:43:43.517Z,99945.53
2023-06-30T06:46:10.098Z,99941.38
2023-06-30T06:48:36.690Z,99946.81
2023-06-30T06:51:04.477Z,99948.13
2023-06-30T06:53:36.397Z,99945.22
2023-06-30T06:56:04.412Z,99949.25
2023-06-30T06:58:33.583Z,99949.13
2023-06-30T07:01:00.294Z,99943.84
2023-06-30T07:03:27.130Z,99943.91
2023-06-30T07:05:56.212Z,99942.94
2023-06-30T07:08:22.878Z,99948.53
2023-06-30T07:10:51.892Z,99943.41
2023-06-30T07:13:20.353Z,99947.13
2023-06-30T07:15:48.913Z,99952.16
2023-06-30T07:18:18.960Z,99956.06
2023-06-30T07:20:46.186Z,99960.00
2023-06-30T07:23:12.791Z,99955.53
2023-06-30T07:25:39.275Z,99959.13
2023-06-30T07:28:05.926Z,99952.69
2023-06-30T07:30:32.489Z,99955.50
2023-06-30T07:32:59.026Z,99952.84
2023-06-30T07:35:25.724Z,99954.81
2023-06-30T07:37:52.313Z,99959.13
2023-06-30T07:40:21.899Z,99960.13
2023-06-30T07:42:50.537Z,99960.53
2023-06-30T07:45:18.107Z,99968.66
2023-06-30T07:47:46.797Z,99967.69
2023-06-30T07:50:15.541Z,99977.59
2023-06-30T07:52:46.925Z,99975.91
2023-06-30T07:55:14.763Z,99967.69
2023-06-30T07:57:41.564Z,99961.94
2023-06-30T08:00:08.688Z,99958.31
2023-06-30T08:02:40.845Z,99957.78
2023-06-30T08:05:07.884Z,99958.06
2023-06-30T08:07:48.935Z,99955.00
2023-06-30T08:10:16.826Z,99956.84
2023-06-30T08:12:43.351Z,99950.94
2023-06-30T08:15:10.472Z,99955.03
2023-06-30T08:17:51.098Z,99952.81
2023-06-30T08:20:23.946Z,99961.91
2023-06-30T08:22:50.653Z,99961.53
2023-06-30T08:25:17.407Z,99957.00
2023-06-30T08:27:44.209Z,99972.84
2023-06-30T08:30:11.108Z,99977.00
2023-06-30T08:32:37.777Z,99973.78
2023-06-30T08:35:04.672Z,99980.81
2023-06-30T08:37:31.208Z,99986.38
2023-06-30T08:39:58.007Z,99987.50
2023-06-30T08:42:29.022Z,99993.22
2023-06-30T08:44:58.286Z,99997.75
2023-06-30T08:47:26.693Z,99995.44
2023-06-30T08:49:57.222Z,99992.66
2023-06-30T08:52:23.759Z,99995.09
2023-06-30T08:54:50.436Z,100003.28
2023-06-30T08:57:17.195Z,100008.19
2023-06-30T08:59:44.590Z,100008.97
2023-06-30T09:02:14.801Z,100009.06
2023-06-30T09:04:42.524Z,100009.78
2023-06-30T09:07:10.939Z,100007.91
2023-06-30T09:09:43.342Z,100010.44
2023-06-30T09:12:11.374Z,100007.19
2023-06-30T09:14:40.223Z,100001.34
2023-06-30T09:17:07.382Z,100004.41
2023-06-30T09:19:35.059Z,100006.72
2023-06-30T09:22:51.054Z,100002.84
2023-06-30T09:24:50.426Z,100004.38
2023-06-30T09:27:18.962Z,100007.97
2023-06-30T09:29:55.006Z,100009.88
2023-06-30T09:32:32.477Z,100018.53
2023-06-30T09:35:07.061Z,100026.09
2023-06-30T09:37:41.930Z,100022.16
2023-06-30T09:40:13.277Z,100025.44
2023-06-30T09:47:27.315Z,100025.16
2023-06-30T09:50:14.039Z,100032.44
2023-06-30T09:53:02.010Z,100024.13
2023-06-30T09:55:52.944Z,100030.00
2023-06-30T09:58:40.678Z,100028.44
2023-06-30T10:01:27.539Z,100018.09
2023-06-30T10:04:15.143Z,100013.28
2023-06-30T10:06:41.925Z,100023.09
2023-06-30T10:09:09.472Z,100019.09
2023-06-30T10:11:36.875Z,100017.28
2023-06-30T10:14:04.625Z,100022.53
2023-06-30T10:16:31.941Z,100025.53
2023-06-30T10:19:01.828Z,100019.97
2023-06-30T10:21:28.803Z,100020.75
2023-06-30T10:23:56.177Z,100012.91
2023-06-30T10:26:24.785Z,100023.97
2023-06-30T10:28:51.687Z,100024.28
2023-06-30T10:31:52.483Z,100020.47
2023-06-30T10:34:19.598Z,100009.03
2023-06-30T10:36:47.041Z,100011.28
2023-06-30T10:39:14.805Z,100015.72
2023-06-30T10:41:50.621Z,100022.47
2023-06-30T10:44:21.687Z,100020.81
2023-06-30T10:46:57.670Z,100020.31
2023-06-30T10:49:34.017Z,100017.66
2023-06-30T10:52:06.813Z,100026.06
2023-06-30T10:54:47.033Z,100018.91
2023-06-30T10:57:24.256Z,100029.03
2023-06-30T11:00:11.571Z,100027.50
2023-06-30T11:02:39.199Z,100036.47
2023-06-30T11:05:26.328Z,100039.94
2023-06-30T11:08:08.964Z,100039.94
2023-06-30T11:10:37.604Z,100042.16
2023-06-30T11:13:10.706Z,100033.47
2023-06-30T11:15:43.921Z,100019.09
2023-06-30T11:18:14.996Z,100021.38
2023-06-30T11:21:01.680Z,100006.34
2023-06-30T11:23:32.235Z,100000.22
2023-06-30T11:25:59.164Z,99998.09
2023-06-30T11:28:29.773Z,100016.31
2023-06-30T11:31:00.385Z,100018.13
2023-06-30T11:33:27.007Z,100012.84
2023-06-30T11:35:54.580Z,100004.19
2023-06-30T11:38:21.246Z,100003.31
2023-06-30T11:40:49.326Z,100001.03
2023-06-30T11:43:15.934Z,100005.06
2023-06-30T11:45:42.487Z,100001.47
2023-06-30T11:48:09.168Z,100002.03
2023-06-30T11:50:36.068Z,100006.22
2023-06-30T11:53:02.671Z,100008.69
2023-06-30T11:55:29.331Z,100010.22
2023-06-30T11:57:56.105Z,100012.50
2023-06-30T12:00:24.564Z,100013.03
2023-06-30T12:02:58.750Z,100017.31
2023-06-30T12:05:27.013Z,100024.66
2023-06-30T12:07:58.598Z,100016.91
2023-06-30T12:10:37.854Z,100010.69
2023-06-30T12:13:07.425Z,100021.63
2023-06-30T12:15:34.136Z,100021.06
2023-06-30T12:18:05.377Z,100016.22
2023-06-30T12:20:37.231Z,100021.72
2023-06-30T12:23:05.535Z,100014.00
2023-06-30T12:25:37.179Z,100005.69
2023-06-30T12:28:05.206Z,100005.19
2023-06-30T12:30:32.196Z,100009.78
2023-06-30T12:33:00.866Z,100006.94
2023-06-30T12:35:30.413Z,100003.19
2023-06-30T12:37:57.188Z,100006.09
2023-06-30T12:40:25.630Z,99998.50
2023-06-30T12:42:58.140Z,99989.75
2023-06-30T12:45:24.725Z,99981.16
2023-06-30T12:47:51.314Z,99980.94
2023-06-30T12:50:17.963Z,99979.66
2023-06-30T12:52:44.589Z,99971.13
2023-06-30T12:55:11.252Z,99985.50
2023-06-30T12:57:38.071Z,99973.59
2023-06-30T13:00:11.742Z,99977.66
2023-06-30T13:02:39.051Z,99985.16
2023-06-30T13:05:07.224Z,99986.47
2023-06-30T13:07:35.294Z,99976.09
2023-06-30T13:10:05.998Z,99975.00
2023-06-30T13:12:32.565Z,99972.84
2023-06-30T13:14:59.283Z,99980.47
2023-06-30T13:17:26.069Z,99977.47
2023-06-30T13:19:53.043Z,99972.03
2023-06-30T13:22:20.615Z,99969.75
2023-06-30T13:24:48.672Z,99960.66
2023-06-30T13:27:15.458Z,99968.09
2023-06-30T13:29:52.602Z,99967.00
2023-06-30T13:32:19.822Z,99966.66
2023-06-30T13:34:48.014Z,99963.31
2023-06-30T13:37:14.900Z,99966.75
2023-06-30T13:39:41.530Z,99961.38
2023-06-30T13:42:09.845Z,99969.25
2023-06-30T13:44:37.108Z,99965.44
2023-06-30T13:47:04.184Z,99967.25
2023-06-30T13:49:30.867Z,99973.31
2023-06-30T13:51:58.131Z,99972.47
2023-06-30T13:54:25.165Z,99961.28
2023-06-30T13:56:53.227Z,99957.06
2023-06-30T13:59:19.861Z,99955.41
2023-06-30T14:01:46.779Z,99951.91
2023-06-30T14:04:14.011Z,99951.69
2023-06-30T14:06:41.248Z,99949.25
2023-06-30T14:09:11.022Z,99950.91
2023-06-30T14:11:41.122Z,99946.06
2023-06-30T14:14:07.798Z,99938.78
2023-06-30T14:16:36.033Z,99939.19
2023-06-30T14:19:04.302Z,99932.81
2023-06-30T14:21:32.053Z,99930.59
2023-06-30T14:23:59.382Z,99933.13
2023-06-30T14:26:26.393Z,99926.44
2023-06-30T14:28:53.753Z,99920.34
2023-06-30T14:31:20.640Z,99916.88
2023-06-30T14:33:47.268Z,99920.28
2023-06-30T14:36:14.099Z,99923.84
2023-06-30T14:38:40.654Z,99925.09
2023-06-30T14:41:07.199Z,99925.06
2023-06-30T14:43:33.686Z,99927.06
2023-06-30T14:46:00.348Z,99922.38
2023-06-30T14:48:26.909Z,99911.06
2023-06-30T14:50:53.383Z,99916.94
2023-06-30T14:53:20.088Z,99908.03
2023-06-30T14:55:47.117Z,99906.81
2023-06-30T14:58:13.932Z,99902.72
2023-06-30T15:00:40.980Z,99893.78
2023-06-30T15:03:07.533Z,99891.47
2023-06-30T15:05:34.221Z,99890.50
2023-06-30T15:08:01.292Z,99884.22
2023-06-30T15:10:27.839Z,99883.72
2023-06-30T15:12:54.410Z,99885.28
2023-06-30T15:15:21.214Z,99874.84
2023-06-30T15:17:47.852Z,99877.31
2023-06-30T15:20:14.424Z,99869.28
2023-06-30T15:22:42.348Z,99872.63
2023-06-30T15:25:25.714Z,99871.63
2023-06-30T15:27:52.714Z,99862.13
2023-06-30T15:30:20.384Z,99858.72
2023-06-30T15:32:47.327Z,99860.75
2023-06-30T15:35:13.854Z,99869.09
2023-06-30T15:37:41.651Z,99870.25
2023-06-30T15:40:08.522Z,99863.13
2023-06-30T15:42:35.230Z,99854.44
2023-06-30T15:45:03.039Z,99854.00
2023-06-30T15:47:29.639Z,99858.31
2023-06-30T15:49:56.153Z,99848.75
2023-06-30T15:52:22.666Z,99854.34
2023-06-30T15:55:07.581Z,99845.56
2023-06-30T15:57:34.457Z,99844.38
2023-06-30T16:00:02.347Z,99844.16
2023-06-30T16:02:39.150Z,99844.13
2023-06-30T16:05:09.954Z,99848.50
2023-06-30T16:07:36.812Z,99846.69
2023-06-30T16:10:05.548Z,99852.50
2023-06-30T16:12:32.294Z,99847.88
2023-06-30T16:14:58.961Z,99848.91
2023-06-30T16:17:25.649Z,99846.88
2023-06-30T16:19:52.195Z,99845.44
2023-06-30T16:22:18.744Z,99843.50
2023-06-30T16:24:46.020Z,99841.50
2023-06-30T16:27:12.883Z,99833.59
2023-06-30T16:29:39.552Z,99831.38
2023-06-30T16:32:07.351Z,99828.84
2023-06-30T16:34:34.145Z,99832.53
2023-06-30T16:37:00.844Z,99830.16
2023-06-30T16:39:27.523Z,99828.94
2023-06-30T16:41:54.001Z,99820.41
2023-06-30T16:44:20.544Z,99826.53
2023-06-30T16:46:47.180Z,99830.00
2023-06-30T16:49:14.056Z,99824.41
2023-06-30T16:51:42.571Z,99823.88
2023-06-30T16:54:09.476Z,99833.84
2023-06-30T16:56:36.069Z,99824.31
2023-06-30T16:59:02.959Z,99835.25
2023-06-30T17:01:29.646Z,99828.50
2023-06-30T17:03:56.320Z,99837.72
2023-06-30T17:06:23.656Z,99830.69
2023-06-30T17:08:50.141Z,99834.41
2023-06-30T17:11:16.710Z,99843.56
2023-06-30T17:13:43.417Z,99836.78
2023-06-30T17:16:09.957Z,99837.19
2023-06-30T17:18:36.518Z,99833.84
2023-06-30T17:21:03.163Z,99827.81
2023-06-30T17:23:29.947Z,99840.97
2023-06-30T17:25:56.646Z,99834.03
2023-06-30T17:28:23.093Z,99835.09
2023-06-30T17:30:49.700Z,99834.41
2023-06-30T17:33:16.275Z,99841.72
2023-06-30T17:35:43.172Z,99840.53
2023-06-30T17:38:09.974Z,99845.22
2023-06-30T17:40:36.519Z,99851.13
2023-06-30T17:43:03.250Z,99845.75
2023-06-30T17:45:29.712Z,99850.41
2023-06-30T17:47:56.193Z,99851.75
2023-06-30T17:50:26.070Z,99852.41
2023-06-30T17:52:52.587Z,99855.66
2023-06-30T17:55:19.498Z,99862.78
2023-06-30T17:57:46.065Z,99859.94
2023-06-30T18:00:13.189Z,99855.81
2023-06-30T18:02:39.699Z,99863.56
2023-06-30T18:05:06.710Z,99861.97
2023-06-30T18:07:33.217Z,99867.63
2023-06-30T18:09:59.935Z,99867.56
2023-06-30T18:12:26.386Z,99866.00
2023-06-30T18:14:52.916Z,99860.38
2023-06-30T18:17:19.550Z,99862.22
2023-06-30T18:19:46.052Z,99869.41
2023-06-30T18:22:14.087Z,99864.41
2023-06-30T18:24:40.877Z,99876.56
2023-06-30T18:27:07.427Z,99882.06
2023-06-30T18:29:34.058Z,99868.75
2023-06-30T18:32:01.069Z,99871.41
2023-06-30T18:34:27.883Z,99877.94
2023-06-30T18:36:54.411Z,99872.41
2023-06-30T18:39:21.145Z,99876.91
2023-06-30T18:41:47.767Z,99878.56
2023-06-30T18:44:14.292Z,99884.72
2023-06-30T18:46:41.066Z,99882.72
2023-06-30T18:49:10.816Z,99885.31
2023-06-30T18:51:39.810Z,99891.78
2023-06-30T18:54:06.364Z,99890.81
2023-06-30T18:56:32.898Z,99897.97
2023-06-30T18:59:01.254Z,99895.59
2023-06-30T19:01:28.746Z,99901.69
2023-06-30T19:03:55.723Z,99900.09
2023-06-30T19:06:24.733Z,99904.28
2023-06-30T19:08:52.941Z,99902.19
2023-06-30T19:11:20.040Z,99906.84
2023-06-30T19:13:46.622Z,99909.44
2023-06-30T19:16:13.265Z,99915.78
2023-06-30T19:18:40.188Z,99913.56
2023-06-30T19:21:10.334Z,99907.66
2023-06-30T19:23:38.535Z,99908.28
2023-06-30T19:26:05.307Z,99906.06
2023-06-30T19:28:32.008Z,99916.34
2023-06-30T19:30:58.889Z,99919.09
2023-06-30T19:33:29.226Z,99922.41
2023-06-30T19:35:56.112Z,99924.16
2023-06-30T19:38:22.713Z,99929.81
2023-06-30T19:40:49.359Z,99924.91
2023-06-30T19:43:16.162Z,99928.41
2023-06-30T19:45:43.382Z,99923.53
2023-06-30T19:48:10.110Z,99926.91
2023-06-30T19:50:37.388Z,99923.28
2023-06-30T19:53:04.336Z,99937.72
2023-06-30T19:55:33.519Z,99939.66
2023-06-30T19:58:00.132Z,99937.88
2023-06-30T20:00:26.789Z,99942.31
2023-06-30T20:02:55.225Z,99940.94
2023-06-30T20:05:21.747Z,99945.13
2023-06-30T20:07:48.403Z,99944.59
2023-06-30T20:10:14.989Z,99947.78
2023-06-30T20:12:41.567Z,99951.78
2023-06-30T20:15:08.784Z,99942.34
2023-06-30T20:17:35.825Z,99946.41
2023-06-30T20:20:02.526Z,99950.25
2023-06-30T20:22:29.995Z,99951.38
2023-06-30T20:24:58.133Z,99958.13
2023-06-30T20:27:24.709Z,99956.78
2023-06-30T20:29:51.871Z,99955.47
2023-06-30T20:32:18.857Z,99952.09
2023-06-30T20:34:45.496Z,99952.88
2023-06-30T20:37:12.150Z,99956.44
2023-06-30T20:39:40.053Z,99958.53
2023-06-30T20:42:07.377Z,99949.88
2023-06-30T20:44:34.664Z,99955.97
2023-06-30T20:47:01.297Z,99952.66
2023-06-30T20:49:27.909Z,99956.31
2023-06-30T20:51:55.431Z,99958.59
2023-06-30T20:54:24.298Z,99950.75
2023-06-30T20:56:51.973Z,99954.94
2023-06-30T20:59:18.790Z,99960.50
2023-06-30T21:01:45.356Z,99957.16
2023-06-30T21:04:12.207Z,99961.63
2023-06-30T21:06:39.149Z,99961.34
2023-06-30T21:09:06.300Z,99964.97
2023-06-30T21:11:33.514Z,99964.03
2023-06-30T21:14:00.663Z,99964.41
2023-06-30T21:16:27.452Z,99960.94
2023-06-30T21:18:54.131Z,99953.53
2023-06-30T21:21:20.688Z,99962.06
2023-06-30T21:23:47.285Z,99964.59
2023-06-30T21:26:13.974Z,99953.56
2023-06-30T21:28:40.517Z,99956.06
2023-06-30T21:31:07.072Z,99957.47
2023-06-30T21:33:33.582Z,99962.41
2023-06-30T21:36:01.812Z,99956.34
2023-06-30T21:38:28.445Z,99962.28
2023-06-30T21:40:55.010Z,99953.22
2023-06-30T21:43:21.581Z,99956.03
2023-06-30T21:45:48.651Z,99952.53
2023-06-30T21:48:15.231Z,99950.19
2023-06-30T21:50:41.751Z,99943.69
2023-06-30T21:53:08.341Z,99952.47
2023-06-30T21:55:35.236Z,99949.38
2023-06-30T21:58:06.469Z,99944.38
2023-06-30T22:00:35.450Z,99943.78
2023-06-30T22:03:02.080Z,99935.22
2023-06-30T22:05:30.143Z,99937.75
2023-06-30T22:07:56.929Z,99938.06
2023-06-30T22:10:23.437Z,99937.94
2023-06-30T22:12:50.009Z,99945.91
2023-06-30T22:15:16.803Z,99941.38
2023-06-30T22:17:43.478Z,99940.66
2023-06-30T22:20:10.771Z,99942.53
2023-06-30T22:22:37.345Z,99942.94
2023-06-30T22:25:04.284Z,99944.38
2023-06-30T22:27:31.062Z,99947.16
2023-06-30T22:29:57.637Z,99937.16
2023-06-30T22:32:25.476Z,99943.53
2023-06-30T22:34:51.982Z,99945.38
2023-06-30T22:37:18.586Z,99938.28
2023-06-30T22:39:45.163Z,99941.19
2023-06-30T22:42:11.602Z,99937.16
2023-06-30T22:44:38.191Z,99940.41
2023-06-30T22:47:05.088Z,99940.69
2023-06-30T22:49:31.763Z,99938.00
2023-06-30T22:51:58.370Z,99948.78
2023-06-30T22:54:26.147Z,99941.25
2023-06-30T22:56:52.656Z,99935.84
2023-06-30T22:59:19.599Z,99934.88
2023-06-30T23:01:47.095Z,99936.72
2023-06-30T23:04:13.601Z,99939.03
2023-06-30T23:06:40.162Z,99931.63
2023-06-30T23:09:06.916Z,99937.00
2023-06-30T23:11:33.505Z,99930.78
2023-06-30T23:14:00.168Z,99931.75
2023-06-30T23:16:26.637Z,99939.31
2023-06-30T23:18:53.227Z,99924.75
2023-06-30T23:21:20.603Z,99929.09
2023-06-30T23:23:47.176Z,99923.81
2023-06-30T23:26:15.320Z,99931.38
2023-06-30T23:28:50.104Z,99924.75
2023-06-30T23:31:18.191Z,99928.94
2023-06-30T23:33:44.821Z,99924.16
2023-06-30T23:36:11.476Z,99929.78
2023-06-30T23:38:39.518Z,99927.38
2023-06-30T23:41:06.234Z,99928.00
2023-06-30T23:43:32.878Z,99926.41
2023-06-30T23:45:59.323Z,99922.31
2023-06-30T23:48:25.905Z,99926.41
2023-06-30T23:50:52.459Z,99927.34
2023-06-30T23:53:19.106Z,99930.09
2023-06-30T23:55:45.637Z,99922.13
2023-06-30T23:58:12.264Z,99914.81
